sensor_id;sensor_type;location;lat;lon;timestamp;temperature;humidity
15789;DHT22;59075;50.670;6.474;2022-10-31T06:01:05;20.40;99.90
15789;DHT22;59075;50.670;6.474;2022-10-31T06:05:59;20.40;99.90
15789;DHT22;59075;50.670;6.474;2022-10-31T06:08:26;20.50;99.90
15789;DHT22;59075;50.670;6.474;2022-10-31T06:10:52;20.40;99.90
15789;DHT22;59075;50.670;6.474;2022-10-31T06:13:19;20.40;99.90
15789;DHT22;59075;50.670;6.474;2022-10-31T06:15:46;20.40;99.90
15789;DHT22;59075;50.670;6.474;2022-10-31T06:18:14;20.40;99.90
15789;DHT22;59075;50.670;6.474;2022-10-31T06:23:07;20.40;99.90
15789;DHT22;59075;50.670;6.474;2022-10-31T06:25:35;20.40;99.90
15789;DHT22;59075;50.670;6.474;2022-10-31T06:28:02;20.40;99.90
15789;DHT22;59075;50.670;6.474;2022-10-31T06:30:28;20.40;99.90
15789;DHT22;59075;50.670;6.474;2022-10-31T06:35:29;20.40;99.90
15789;DHT22;59075;50.670;6.474;2022-10-31T06:37:56;20.40;99.90
15789;DHT22;59075;50.670;6.474;2022-10-31T06:40:23;20.40;99.90
15789;DHT22;59075;50.670;6.474;2022-10-31T06:42:56;20.40;99.90
15789;DHT22;59075;50.670;6.474;2022-10-31T06:45:23;20.40;99.90
15789;DHT22;59075;50.670;6.474;2022-10-31T06:47:51;20.40;99.90
15789;DHT22;59075;50.670;6.474;2022-10-31T06:50:18;20.40;99.90
15789;DHT22;59075;50.670;6.474;2022-10-31T06:52:51;20.40;99.90
15789;DHT22;59075;50.670;6.474;2022-10-31T06:55:17;20.40;99.90
15789;DHT22;59075;50.670;6.474;2022-10-31T06:57:49;20.40;99.90
15789;DHT22;59075;50.670;6.474;2022-10-31T07:00:16;20.40;99.90
15789;DHT22;59075;50.670;6.474;2022-10-31T07:02:43;20.40;99.90
15789;DHT22;59075;50.670;6.474;2022-10-31T07:05:10;20.40;99.90
15789;DHT22;59075;50.670;6.474;2022-10-31T07:07:36;20.30;99.90
15789;DHT22;59075;50.670;6.474;2022-10-31T07:10:04;20.40;99.90
15789;DHT22;59075;50.670;6.474;2022-10-31T07:12:31;20.40;99.90
15789;DHT22;59075;50.670;6.474;2022-10-31T07:14:58;20.30;99.90
15789;DHT22;59075;50.670;6.474;2022-10-31T07:17:24;20.40;99.90
15789;DHT22;59075;50.670;6.474;2022-10-31T07:19:51;20.30;99.90
15789;DHT22;59075;50.670;6.474;2022-10-31T07:22:18;20.30;99.90
15789;DHT22;59075;50.670;6.474;2022-10-31T07:24:44;20.30;99.90
15789;DHT22;59075;50.670;6.474;2022-10-31T07:27:13;20.40;99.90
15789;DHT22;59075;50.670;6.474;2022-10-31T07:29:39;20.30;99.90
15789;DHT22;59075;50.670;6.474;2022-10-31T07:32:06;20.30;99.90
15789;DHT22;59075;50.670;6.474;2022-10-31T07:34:33;20.40;99.90
15789;DHT22;59075;50.670;6.474;2022-10-31T07:36:59;20.40;99.90
15789;DHT22;59075;50.670;6.474;2022-10-31T07:39:26;20.30;99.90
15789;DHT22;59075;50.670;6.474;2022-10-31T07:41:52;20.30;99.90
15789;DHT22;59075;50.670;6.474;2022-10-31T07:44:20;20.30;99.90
15789;DHT22;59075;50.670;6.474;2022-10-31T07:46:47;20.30;99.90
15789;DHT22;59075;50.670;6.474;2022-10-31T07:49:14;20.30;99.90
15789;DHT22;59075;50.670;6.474;2022-10-31T07:51:40;20.30;99.90
15789;DHT22;59075;50.670;6.474;2022-10-31T07:54:07;20.30;99.90
15789;DHT22;59075;50.670;6.474;2022-10-31T07:56:34;20.40;99.90
15789;DHT22;59075;50.670;6.474;2022-10-31T07:59:00;20.30;99.90
15789;DHT22;59075;50.670;6.474;2022-10-31T08:01:28;20.30;99.90
15789;DHT22;59075;50.670;6.474;2022-10-31T08:03:55;20.30;99.90
15789;DHT22;59075;50.670;6.474;2022-10-31T08:06:21;20.30;99.90
15789;DHT22;59075;50.670;6.474;2022-10-31T08:08:48;20.30;99.90
15789;DHT22;59075;50.670;6.474;2022-10-31T08:11:15;20.40;99.90
15789;DHT22;59075;50.670;6.474;2022-10-31T08:13:41;20.40;99.90
15789;DHT22;59075;50.670;6.474;2022-10-31T08:16:09;20.30;99.90
15789;DHT22;59075;50.670;6.474;2022-10-31T08:18:37;20.30;99.90
15789;DHT22;59075;50.670;6.474;2022-10-31T08:21:04;20.30;99.90
15789;DHT22;59075;50.670;6.474;2022-10-31T08:23:30;20.40;99.90
15789;DHT22;59075;50.670;6.474;2022-10-31T08:28:24;20.40;99.90
15789;DHT22;59075;50.670;6.474;2022-10-31T08:30:51;20.40;99.90
15789;DHT22;59075;50.670;6.474;2022-10-31T08:33:18;20.40;99.90
15789;DHT22;59075;50.670;6.474;2022-10-31T08:35:46;20.40;99.90
15789;DHT22;59075;50.670;6.474;2022-10-31T08:38:13;20.40;99.90
15789;DHT22;59075;50.670;6.474;2022-10-31T08:40:41;20.40;99.90
15789;DHT22;59075;50.670;6.474;2022-10-31T08:43:11;20.40;99.90
15789;DHT22;59075;50.670;6.474;2022-10-31T08:45:38;20.40;99.90
15789;DHT22;59075;50.670;6.474;2022-10-31T08:48:06;20.40;99.90
15789;DHT22;59075;50.670;6.474;2022-10-31T08:50:35;20.40;99.90
15789;DHT22;59075;50.670;6.474;2022-10-31T08:53:04;20.40;99.90
15789;DHT22;59075;50.670;6.474;2022-10-31T08:55:32;20.40;99.90
15789;DHT22;59075;50.670;6.474;2022-10-31T08:57:58;20.40;99.90
15789;DHT22;59075;50.670;6.474;2022-10-31T09:00:25;20.40;99.90
15789;DHT22;59075;50.670;6.474;2022-10-31T09:02:56;20.40;99.90
15789;DHT22;59075;50.670;6.474;2022-10-31T09:05:24;20.40;99.90
15789;DHT22;59075;50.670;6.474;2022-10-31T09:07:50;20.40;99.90
15789;DHT22;59075;50.670;6.474;2022-10-31T09:10:18;20.40;99.90
15789;DHT22;59075;50.670;6.474;2022-10-31T09:12:45;20.50;99.90
15789;DHT22;59075;50.670;6.474;2022-10-31T09:15:15;20.50;99.90
15789;DHT22;59075;50.670;6.474;2022-10-31T09:17:46;20.40;99.90
15789;DHT22;59075;50.670;6.474;2022-10-31T09:20:13;20.50;99.90
15789;DHT22;59075;50.670;6.474;2022-10-31T09:22:39;20.50;99.90
15789;DHT22;59075;50.670;6.474;2022-10-31T09:25:07;20.50;99.90
15789;DHT22;59075;50.670;6.474;2022-10-31T09:27:36;20.50;99.90
15789;DHT22;59075;50.670;6.474;2022-10-31T09:32:30;20.60;99.90
15789;DHT22;59075;50.670;6.474;2022-10-31T09:34:57;20.60;99.90
15789;DHT22;59075;50.670;6.474;2022-10-31T09:37:23;20.60;99.90
15789;DHT22;59075;50.670;6.474;2022-10-31T09:39:50;20.60;99.90
15789;DHT22;59075;50.670;6.474;2022-10-31T09:42:34;20.60;99.90
15789;DHT22;59075;50.670;6.474;2022-10-31T09:45:11;20.50;99.90
15789;DHT22;59075;50.670;6.474;2022-10-31T09:47:49;20.60;99.90
15789;DHT22;59075;50.670;6.474;2022-10-31T09:50:21;20.60;99.90
15789;DHT22;59075;50.670;6.474;2022-10-31T09:52:56;20.60;99.90
15789;DHT22;59075;50.670;6.474;2022-10-31T09:57:58;20.60;99.90
15789;DHT22;59075;50.670;6.474;2022-10-31T10:03:06;20.70;99.90
15789;DHT22;59075;50.670;6.474;2022-10-31T10:05:40;20.70;99.90
15789;DHT22;59075;50.670;6.474;2022-10-31T10:08:11;20.70;99.90
15789;DHT22;59075;50.670;6.474;2022-10-31T10:10:48;20.70;99.90
15789;DHT22;59075;50.670;6.474;2022-10-31T10:16:08;20.70;99.90
15789;DHT22;59075;50.670;6.474;2022-10-31T10:18:43;20.70;99.90
15789;DHT22;59075;50.670;6.474;2022-10-31T10:21:22;20.70;99.90
15789;DHT22;59075;50.670;6.474;2022-10-31T10:23:58;20.70;99.90
15789;DHT22;59075;50.670;6.474;2022-10-31T10:26:33;20.70;99.90
15789;DHT22;59075;50.670;6.474;2022-10-31T10:29:07;20.70;99.90
15789;DHT22;59075;50.670;6.474;2022-10-31T10:31:42;20.70;99.90
15789;DHT22;59075;50.670;6.474;2022-10-31T10:34:17;20.70;99.90
15789;DHT22;59075;50.670;6.474;2022-10-31T10:36:48;20.70;99.90
15789;DHT22;59075;50.670;6.474;2022-10-31T10:39:18;20.70;99.90
15789;DHT22;59075;50.670;6.474;2022-10-31T10:41:48;20.70;99.90
15789;DHT22;59075;50.670;6.474;2022-10-31T10:44:28;20.70;99.90
15789;DHT22;59075;50.670;6.474;2022-10-31T10:47:14;20.70;99.90
15789;DHT22;59075;50.670;6.474;2022-10-31T10:49:59;20.80;99.90
15789;DHT22;59075;50.670;6.474;2022-10-31T10:52:37;20.80;99.90
15789;DHT22;59075;50.670;6.474;2022-10-31T10:55:09;20.80;99.90
15789;DHT22;59075;50.670;6.474;2022-10-31T11:00:20;20.80;99.90
15789;DHT22;59075;50.670;6.474;2022-10-31T11:05:30;20.80;99.90
15789;DHT22;59075;50.670;6.474;2022-10-31T11:07:59;20.80;99.90
15789;DHT22;59075;50.670;6.474;2022-10-31T11:13:17;20.90;99.90
15789;DHT22;59075;50.670;6.474;2022-10-31T11:15:59;20.90;99.90
15789;DHT22;59075;50.670;6.474;2022-10-31T11:18:30;20.90;99.90
15789;DHT22;59075;50.670;6.474;2022-10-31T11:20:59;20.90;99.90
15789;DHT22;59075;50.670;6.474;2022-10-31T11:23:27;20.90;99.90
15789;DHT22;59075;50.670;6.474;2022-10-31T11:25:56;20.90;99.90
15789;DHT22;59075;50.670;6.474;2022-10-31T11:28:23;20.90;99.90
15789;DHT22;59075;50.670;6.474;2022-10-31T11:30:52;20.90;99.90
15789;DHT22;59075;50.670;6.474;2022-10-31T11:33:33;20.90;99.90
15789;DHT22;59075;50.670;6.474;2022-10-31T11:36:21;20.90;99.90
15789;DHT22;59075;50.670;6.474;2022-10-31T11:38:49;20.90;99.90
15789;DHT22;59075;50.670;6.474;2022-10-31T11:41:17;20.90;99.90
15789;DHT22;59075;50.670;6.474;2022-10-31T11:43:50;20.90;99.90
15789;DHT22;59075;50.670;6.474;2022-10-31T11:46:21;20.90;99.90
15789;DHT22;59075;50.670;6.474;2022-10-31T11:51:24;20.90;99.90
15789;DHT22;59075;50.670;6.474;2022-10-31T11:56:19;21.00;99.90
15789;DHT22;59075;50.670;6.474;2022-10-31T11:58:55;21.00;99.90
15789;DHT22;59075;50.670;6.474;2022-10-31T12:01:25;21.00;99.90
15789;DHT22;59075;50.670;6.474;2022-10-31T12:04:02;21.00;99.90
15789;DHT22;59075;50.670;6.474;2022-10-31T12:06:33;21.00;99.90
15789;DHT22;59075;50.670;6.474;2022-10-31T12:09:00;21.00;99.90
15789;DHT22;59075;50.670;6.474;2022-10-31T12:11:39;21.00;99.90
15789;DHT22;59075;50.670;6.474;2022-10-31T12:14:26;21.00;99.90
15789;DHT22;59075;50.670;6.474;2022-10-31T12:16:59;21.00;99.90
15789;DHT22;59075;50.670;6.474;2022-10-31T12:19:35;21.00;99.90
15789;DHT22;59075;50.670;6.474;2022-10-31T12:22:08;21.00;99.90
15789;DHT22;59075;50.670;6.474;2022-10-31T12:24:48;21.00;99.90
15789;DHT22;59075;50.670;6.474;2022-10-31T12:27:27;21.00;99.90
15789;DHT22;59075;50.670;6.474;2022-10-31T12:30:08;21.00;99.90
15789;DHT22;59075;50.670;6.474;2022-10-31T12:32:43;21.00;99.90
15789;DHT22;59075;50.670;6.474;2022-10-31T12:35:37;21.00;99.90
15789;DHT22;59075;50.670;6.474;2022-10-31T12:38:30;21.00;99.90
15789;DHT22;59075;50.670;6.474;2022-10-31T12:43:43;21.00;99.90
15789;DHT22;59075;50.670;6.474;2022-10-31T12:46:17;21.00;99.90
15789;DHT22;59075;50.670;6.474;2022-10-31T12:52:08;21.00;99.90
15789;DHT22;59075;50.670;6.474;2022-10-31T12:54:51;21.00;99.90
15789;DHT22;59075;50.670;6.474;2022-10-31T12:57:26;21.00;99.90
15789;DHT22;59075;50.670;6.474;2022-10-31T12:59:57;21.00;99.90
15789;DHT22;59075;50.670;6.474;2022-10-31T13:02:29;21.00;99.90
15789;DHT22;59075;50.670;6.474;2022-10-31T13:05:00;21.00;99.90
15789;DHT22;59075;50.670;6.474;2022-10-31T13:07:34;21.00;99.90
15789;DHT22;59075;50.670;6.474;2022-10-31T13:10:07;21.00;99.90
15789;DHT22;59075;50.670;6.474;2022-10-31T13:12:36;21.00;99.90
15789;DHT22;59075;50.670;6.474;2022-10-31T13:15:05;21.00;99.90
15789;DHT22;59075;50.670;6.474;2022-10-31T13:17:42;21.00;99.90
15789;DHT22;59075;50.670;6.474;2022-10-31T13:20:20;21.00;99.90
15789;DHT22;59075;50.670;6.474;2022-10-31T13:22:51;21.00;99.90
15789;DHT22;59075;50.670;6.474;2022-10-31T13:25:23;21.00;99.90
15789;DHT22;59075;50.670;6.474;2022-10-31T13:27:54;21.00;99.90
15789;DHT22;59075;50.670;6.474;2022-10-31T13:30:22;21.00;99.90
15789;DHT22;59075;50.670;6.474;2022-10-31T13:32:54;21.10;99.90
15789;DHT22;59075;50.670;6.474;2022-10-31T13:35:28;21.00;99.90
15789;DHT22;59075;50.670;6.474;2022-10-31T13:38:10;21.00;99.90
15789;DHT22;59075;50.670;6.474;2022-10-31T13:40:44;21.00;99.90
15789;DHT22;59075;50.670;6.474;2022-10-31T13:43:19;20.90;99.90
15789;DHT22;59075;50.670;6.474;2022-10-31T13:45:50;21.00;99.90
15789;DHT22;59075;50.670;6.474;2022-10-31T13:48:34;21.00;99.90
15789;DHT22;59075;50.670;6.474;2022-10-31T13:51:04;21.00;99.90
15789;DHT22;59075;50.670;6.474;2022-10-31T13:53:39;21.10;99.90
15789;DHT22;59075;50.670;6.474;2022-10-31T13:56:15;21.10;99.90
15789;DHT22;59075;50.670;6.474;2022-10-31T13:58:57;21.00;99.90
15789;DHT22;59075;50.670;6.474;2022-10-31T14:01:24;21.00;99.90
15789;DHT22;59075;50.670;6.474;2022-10-31T14:03:58;21.00;99.90
15789;DHT22;59075;50.670;6.474;2022-10-31T14:06:38;21.00;99.90
15789;DHT22;59075;50.670;6.474;2022-10-31T14:12:01;21.00;99.90
15789;DHT22;59075;50.670;6.474;2022-10-31T14:14:34;21.20;99.90
15789;DHT22;59075;50.670;6.474;2022-10-31T14:17:02;21.10;99.90
15789;DHT22;59075;50.670;6.474;2022-10-31T14:19:29;21.00;99.90
15789;DHT22;59075;50.670;6.474;2022-10-31T14:21:56;21.10;99.90
15789;DHT22;59075;50.670;6.474;2022-10-31T14:24:35;21.00;99.90
15789;DHT22;59075;50.670;6.474;2022-10-31T14:27:29;21.10;99.90
15789;DHT22;59075;50.670;6.474;2022-10-31T14:29:51;21.00;99.90
15789;DHT22;59075;50.670;6.474;2022-10-31T14:32:21;21.10;99.90
15789;DHT22;59075;50.670;6.474;2022-10-31T14:34:53;21.10;99.90
15789;DHT22;59075;50.670;6.474;2022-10-31T14:37:38;21.00;99.90
15789;DHT22;59075;50.670;6.474;2022-10-31T14:40:23;21.00;99.90
15789;DHT22;59075;50.670;6.474;2022-10-31T14:43:39;21.00;99.90
15789;DHT22;59075;50.670;6.474;2022-10-31T14:46:13;21.20;99.90
15789;DHT22;59075;50.670;6.474;2022-10-31T14:51:31;21.10;99.90
15789;DHT22;59075;50.670;6.474;2022-10-31T14:56:31;21.00;99.90
15789;DHT22;59075;50.670;6.474;2022-10-31T15:04:00;21.10;99.90
15789;DHT22;59075;50.670;6.474;2022-10-31T15:11:26;21.00;99.90
15789;DHT22;59075;50.670;6.474;2022-10-31T15:16:24;21.00;99.90
15789;DHT22;59075;50.670;6.474;2022-10-31T15:21:22;21.00;99.90
15789;DHT22;59075;50.670;6.474;2022-10-31T15:23:51;21.00;99.90
15789;DHT22;59075;50.670;6.474;2022-10-31T15:26:21;20.60;99.90
15789;DHT22;59075;50.670;6.474;2022-10-31T15:28:59;21.00;99.90
15789;DHT22;59075;50.670;6.474;2022-10-31T15:31:27;20.90;99.90
15789;DHT22;59075;50.670;6.474;2022-10-31T15:33:58;21.00;99.90
15789;DHT22;59075;50.670;6.474;2022-10-31T15:36:27;21.00;99.90
15789;DHT22;59075;50.670;6.474;2022-10-31T15:38:55;21.30;99.90
15789;DHT22;59075;50.670;6.474;2022-10-31T15:43:54;21.00;99.90
15789;DHT22;59075;50.670;6.474;2022-10-31T15:46:22;21.00;99.90
15789;DHT22;59075;50.670;6.474;2022-10-31T15:48:49;21.00;99.90
15789;DHT22;59075;50.670;6.474;2022-10-31T15:51:16;20.90;99.90
15789;DHT22;59075;50.670;6.474;2022-10-31T15:53:45;20.70;99.90
15789;DHT22;59075;50.670;6.474;2022-10-31T15:56:19;21.00;99.90
15789;DHT22;59075;50.670;6.474;2022-10-31T15:58:49;21.00;99.90
15789;DHT22;59075;50.670;6.474;2022-10-31T16:01:23;20.90;99.90
15789;DHT22;59075;50.670;6.474;2022-10-31T16:04:03;20.90;99.90
15789;DHT22;59075;50.670;6.474;2022-10-31T16:06:30;20.90;99.90
15789;DHT22;59075;50.670;6.474;2022-10-31T16:14:04;20.90;99.90
15789;DHT22;59075;50.670;6.474;2022-10-31T16:16:39;20.90;99.90
15789;DHT22;59075;50.670;6.474;2022-10-31T16:19:15;21.10;99.90
15789;DHT22;59075;50.670;6.474;2022-10-31T16:21:42;20.80;99.90
15789;DHT22;59075;50.670;6.474;2022-10-31T16:24:16;20.80;99.90
15789;DHT22;59075;50.670;6.474;2022-10-31T16:26:48;20.90;99.90
15789;DHT22;59075;50.670;6.474;2022-10-31T16:29:25;20.80;99.90
15789;DHT22;59075;50.670;6.474;2022-10-31T16:31:54;20.80;99.90
15789;DHT22;59075;50.670;6.474;2022-10-31T16:34:22;20.80;99.90
15789;DHT22;59075;50.670;6.474;2022-10-31T16:36:49;20.80;99.90
15789;DHT22;59075;50.670;6.474;2022-10-31T16:39:16;20.80;99.90
15789;DHT22;59075;50.670;6.474;2022-10-31T16:41:46;20.90;99.90
15789;DHT22;59075;50.670;6.474;2022-10-31T16:44:17;20.90;99.90
15789;DHT22;59075;50.670;6.474;2022-10-31T16:46:44;20.70;99.90
15789;DHT22;59075;50.670;6.474;2022-10-31T16:49:12;20.80;99.90
15789;DHT22;59075;50.670;6.474;2022-10-31T16:51:41;20.80;99.90
15789;DHT22;59075;50.670;6.474;2022-10-31T16:54:07;20.80;99.90
15789;DHT22;59075;50.670;6.474;2022-10-31T16:56:36;20.90;99.90
15789;DHT22;59075;50.670;6.474;2022-10-31T16:59:06;20.80;99.90
15789;DHT22;59075;50.670;6.474;2022-10-31T17:01:36;20.80;99.90
15789;DHT22;59075;50.670;6.474;2022-10-31T17:04:03;20.80;99.90
15789;DHT22;59075;50.670;6.474;2022-10-31T17:06:31;20.80;99.90
15789;DHT22;59075;50.670;6.474;2022-10-31T17:11:25;20.80;99.90
15789;DHT22;59075;50.670;6.474;2022-10-31T17:13:53;20.70;99.90
15789;DHT22;59075;50.670;6.474;2022-10-31T17:16:21;20.80;99.90
15789;DHT22;59075;50.670;6.474;2022-10-31T17:18:47;20.70;99.90
15789;DHT22;59075;50.670;6.474;2022-10-31T17:21:18;20.70;99.90
15789;DHT22;59075;50.670;6.474;2022-10-31T17:23:46;20.70;99.90
15789;DHT22;59075;50.670;6.474;2022-10-31T17:26:13;20.60;99.90
15789;DHT22;59075;50.670;6.474;2022-10-31T17:28:40;20.70;99.90
15789;DHT22;59075;50.670;6.474;2022-10-31T17:31:15;20.70;99.90
15789;DHT22;59075;50.670;6.474;2022-10-31T17:33:45;20.50;99.90
15789;DHT22;59075;50.670;6.474;2022-10-31T17:36:12;20.70;99.90
15789;DHT22;59075;50.670;6.474;2022-10-31T17:38:38;20.70;99.90
15789;DHT22;59075;50.670;6.474;2022-10-31T17:41:07;20.70;99.90
15789;DHT22;59075;50.670;6.474;2022-10-31T17:43:34;20.70;99.90
15789;DHT22;59075;50.670;6.474;2022-10-31T17:48:28;20.90;99.90
15789;DHT22;59075;50.670;6.474;2022-10-31T17:50:59;20.70;99.90
15789;DHT22;59075;50.670;6.474;2022-10-31T17:53:27;20.70;99.90
15789;DHT22;59075;50.670;6.474;2022-10-31T17:55:59;20.60;99.90
15789;DHT22;59075;50.670;6.474;2022-10-31T17:58:27;20.60;99.90
15789;DHT22;59075;50.670;6.474;2022-10-31T18:00:54;20.90;99.90
15789;DHT22;59075;50.670;6.474;2022-10-31T18:03:21;20.60;99.90
15789;DHT22;59075;50.670;6.474;2022-10-31T18:05:52;20.70;99.90
15789;DHT22;59075;50.670;6.474;2022-10-31T18:08:19;20.80;99.90
15789;DHT22;59075;50.670;6.474;2022-10-31T18:10:45;20.70;99.90
15789;DHT22;59075;50.670;6.474;2022-10-31T18:13:12;20.50;99.90
15789;DHT22;59075;50.670;6.474;2022-10-31T18:15:40;20.70;99.90
15789;DHT22;59075;50.670;6.474;2022-10-31T18:18:07;20.70;99.90
15789;DHT22;59075;50.670;6.474;2022-10-31T18:20:34;20.60;99.90
15789;DHT22;59075;50.670;6.474;2022-10-31T18:23:00;20.60;99.90
15789;DHT22;59075;50.670;6.474;2022-10-31T18:25:27;20.60;99.90
15789;DHT22;59075;50.670;6.474;2022-10-31T18:27:54;20.50;99.90
15789;DHT22;59075;50.670;6.474;2022-10-31T18:30:20;20.70;99.90
15789;DHT22;59075;50.670;6.474;2022-10-31T18:32:50;20.60;99.90
15789;DHT22;59075;50.670;6.474;2022-10-31T18:35:17;20.80;99.90
15789;DHT22;59075;50.670;6.474;2022-10-31T18:37:44;20.60;99.90
15789;DHT22;59075;50.670;6.474;2022-10-31T18:40:10;20.80;99.90
15789;DHT22;59075;50.670;6.474;2022-10-31T18:42:37;20.90;99.90
15789;DHT22;59075;50.670;6.474;2022-10-31T18:47:32;20.80;99.90
15789;DHT22;59075;50.670;6.474;2022-10-31T18:50:00;20.70;99.90
15789;DHT22;59075;50.670;6.474;2022-10-31T18:52:26;20.60;99.90
15789;DHT22;59075;50.670;6.474;2022-10-31T18:59:47;20.70;99.90
15789;DHT22;59075;50.670;6.474;2022-10-31T19:02:14;20.80;99.90
15789;DHT22;59075;50.670;6.474;2022-10-31T19:07:10;20.70;99.90
15789;DHT22;59075;50.670;6.474;2022-10-31T19:12:05;20.40;99.90
15789;DHT22;59075;50.670;6.474;2022-10-31T19:14:31;20.60;99.90
15789;DHT22;59075;50.670;6.474;2022-10-31T19:16:58;20.90;99.90
15789;DHT22;59075;50.670;6.474;2022-10-31T19:19:25;20.70;99.90
15789;DHT22;59075;50.670;6.474;2022-10-31T19:21:52;20.70;99.90
15789;DHT22;59075;50.670;6.474;2022-10-31T19:24:21;20.50;99.90
15789;DHT22;59075;50.670;6.474;2022-10-31T19:26:48;20.50;99.90
15789;DHT22;59075;50.670;6.474;2022-10-31T19:29:15;20.90;99.90
15789;DHT22;59075;50.670;6.474;2022-10-31T19:31:42;20.50;99.90
15789;DHT22;59075;50.670;6.474;2022-10-31T19:37:03;20.60;99.90
15789;DHT22;59075;50.670;6.474;2022-10-31T19:39:31;20.60;99.90
15789;DHT22;59075;50.670;6.474;2022-10-31T19:41:58;20.40;99.90
15789;DHT22;59075;50.670;6.474;2022-10-31T19:44:24;20.60;99.90
15789;DHT22;59075;50.670;6.474;2022-10-31T19:46:51;20.60;99.90
15789;DHT22;59075;50.670;6.474;2022-10-31T19:49:17;20.60;99.90
15789;DHT22;59075;50.670;6.474;2022-10-31T19:54:11;20.80;99.90
15789;DHT22;59075;50.670;6.474;2022-10-31T19:56:39;20.70;99.90
15789;DHT22;59075;50.670;6.474;2022-10-31T19:59:06;20.60;99.90
15789;DHT22;59075;50.670;6.474;2022-10-31T20:01:33;20.40;99.90
15789;DHT22;59075;50.670;6.474;2022-10-31T20:04:00;20.60;99.90
15789;DHT22;59075;50.670;6.474;2022-10-31T20:06:29;20.70;99.90
15789;DHT22;59075;50.670;6.474;2022-10-31T20:08:57;20.60;99.90
15789;DHT22;59075;50.670;6.474;2022-10-31T20:13:55;20.80;99.90
15789;DHT22;59075;50.670;6.474;2022-10-31T20:16:22;20.50;99.90
15789;DHT22;59075;50.670;6.474;2022-10-31T20:18:49;20.30;99.90
15789;DHT22;59075;50.670;6.474;2022-10-31T20:21:17;20.60;99.90
15789;DHT22;59075;50.670;6.474;2022-10-31T20:23:44;20.60;99.90
15789;DHT22;59075;50.670;6.474;2022-10-31T20:26:14;20.60;99.90
15789;DHT22;59075;50.670;6.474;2022-10-31T20:31:14;20.60;99.90
15789;DHT22;59075;50.670;6.474;2022-10-31T20:33:41;20.90;99.90
15789;DHT22;59075;50.670;6.474;2022-10-31T20:36:08;20.60;99.90
15789;DHT22;59075;50.670;6.474;2022-10-31T20:38:36;20.60;99.90
15789;DHT22;59075;50.670;6.474;2022-10-31T20:41:06;20.60;99.90
15789;DHT22;59075;50.670;6.474;2022-10-31T20:43:33;20.60;99.90
15789;DHT22;59075;50.670;6.474;2022-10-31T20:46:01;20.60;99.90
15789;DHT22;59075;50.670;6.474;2022-10-31T20:48:30;20.60;99.90
15789;DHT22;59075;50.670;6.474;2022-10-31T20:50:57;20.60;99.90
15789;DHT22;59075;50.670;6.474;2022-10-31T20:53:23;20.60;99.90
15789;DHT22;59075;50.670;6.474;2022-10-31T20:55:59;20.60;99.90
15789;DHT22;59075;50.670;6.474;2022-10-31T20:58:26;20.60;99.90
15789;DHT22;59075;50.670;6.474;2022-10-31T21:00:52;20.50;99.90
15789;DHT22;59075;50.670;6.474;2022-10-31T21:03:19;20.50;99.90
15789;DHT22;59075;50.670;6.474;2022-10-31T21:05:53;20.50;99.90
15789;DHT22;59075;50.670;6.474;2022-10-31T21:08:20;20.50;99.90
15789;DHT22;59075;50.670;6.474;2022-10-31T21:10:46;20.50;99.90
15789;DHT22;59075;50.670;6.474;2022-10-31T21:13:13;20.50;99.90
15789;DHT22;59075;50.670;6.474;2022-10-31T21:15:40;20.50;99.90
15789;DHT22;59075;50.670;6.474;2022-10-31T21:18:07;20.50;99.90
15789;DHT22;59075;50.670;6.474;2022-10-31T21:20:34;20.50;99.90
15789;DHT22;59075;50.670;6.474;2022-10-31T21:23:05;20.50;99.90
15789;DHT22;59075;50.670;6.474;2022-10-31T21:25:32;20.50;99.90
15789;DHT22;59075;50.670;6.474;2022-10-31T21:27:58;20.50;99.90
15789;DHT22;59075;50.670;6.474;2022-10-31T21:32:52;20.50;99.90
15789;DHT22;59075;50.670;6.474;2022-10-31T21:40:14;20.50;99.90
15789;DHT22;59075;50.670;6.474;2022-10-31T21:42:41;20.50;99.90
15789;DHT22;59075;50.670;6.474;2022-10-31T21:45:08;20.50;99.90
15789;DHT22;59075;50.670;6.474;2022-10-31T21:47:35;20.50;99.90
15789;DHT22;59075;50.670;6.474;2022-10-31T21:50:02;20.50;99.90
15789;DHT22;59075;50.670;6.474;2022-10-31T21:55:51;20.50;99.90
15789;DHT22;59075;50.670;6.474;2022-10-31T21:58:18;20.50;99.90
